Time;durP1;ratioP1;P1;durP2;ratioP2;P2;SDS_P1;SDS_P2;PMS_P1;PMS_P2;Temp;Humidity;BMP_temperature;BMP_pressure;BME280_temperature;BME280_humidity;BME280_pressure;Samples;Min_cycle;Max_cycle;Signal;HPM_P1;HPM_P2
2022/06/27 00:00:26;;;;;;;10.05;5.45;;;;;;;18.08;100.00;101511.38;5031733;28;20049;-74
2022/06/27 00:02:51;;;;;;;9.80;5.43;;;;;;;18.09;100.00;101514.91;5031451;28;20025;-75
2022/06/27 00:05:16;;;;;;;10.02;5.35;;;;;;;18.10;100.00;101511.34;5030689;28;20041;-74
2022/06/27 00:07:42;;;;;;;11.50;5.65;;;;;;;18.11;100.00;101508.69;5026775;28;20033;-75
2022/06/27 00:10:09;;;;;;;10.77;5.25;;;;;;;18.12;100.00;101510.47;5030913;28;20026;-74
2022/06/27 00:12:35;;;;;;;9.45;5.22;;;;;;;18.10;100.00;101511.34;5031713;28;20018;-75
2022/06/27 00:15:00;;;;;;;10.02;5.78;;;;;;;18.08;100.00;101514.03;5033518;28;20059;-75
2022/06/27 00:17:27;;;;;;;8.48;5.18;;;;;;;18.08;100.00;101508.72;5035715;28;20029;-73
2022/06/27 00:19:53;;;;;;;9.80;5.55;;;;;;;18.09;100.00;101515.78;5034496;28;20469;-75
2022/06/27 00:22:18;;;;;;;10.20;4.97;;;;;;;18.04;100.00;101517.56;5033827;28;20103;-73
2022/06/27 00:24:44;;;;;;;7.63;4.68;;;;;;;18.02;100.00;101514.03;5035740;28;20041;-74
2022/06/27 00:27:09;;;;;;;10.10;5.43;;;;;;;18.02;100.00;101524.69;5033893;28;20029;-73
2022/06/27 00:29:34;;;;;;;9.98;5.30;;;;;;;18.03;100.00;101515.81;5034899;28;20033;-74
2022/06/27 00:32:00;;;;;;;9.57;6.03;;;;;;;18.05;100.00;101519.34;5034645;28;20104;-74
2022/06/27 00:34:25;;;;;;;13.35;5.95;;;;;;;18.04;100.00;101522.91;5034953;28;20108;-74
2022/06/27 00:36:51;;;;;;;8.85;5.43;;;;;;;18.05;100.00;101524.69;5035612;28;20076;-74
2022/06/27 00:39:16;;;;;;;11.43;5.50;;;;;;;18.03;100.00;101522.03;5035423;28;20483;-75
2022/06/27 00:41:41;;;;;;;12.75;5.72;;;;;;;18.02;100.00;101530.03;5033551;28;20504;-74
2022/06/27 00:44:07;;;;;;;12.05;5.88;;;;;;;18.01;100.00;101539.81;5034791;28;20393;-75
2022/06/27 00:46:32;;;;;;;10.82;5.63;;;;;;;18.00;100.00;101537.13;5033345;28;20508;-74
2022/06/27 00:48:58;;;;;;;12.15;6.15;;;;;;;17.96;100.00;101540.69;5034843;28;20057;-74
2022/06/27 00:51:24;;;;;;;7.07;5.45;;;;;;;17.96;100.00;101544.25;5034663;28;20061;-74
2022/06/27 00:53:54;;;;;;;7.78;5.35;;;;;;;17.95;100.00;101546.91;5034909;28;20049;-73
2022/06/27 00:56:19;;;;;;;7.35;4.68;;;;;;;17.94;100.00;101547.81;5035173;28;20080;-75
2022/06/27 00:58:45;;;;;;;11.65;5.70;;;;;;;17.93;100.00;101551.34;5033835;28;20029;-74
2022/06/27 01:01:10;;;;;;;9.98;5.90;;;;;;;17.92;100.00;101552.22;5034529;28;20485;-74
2022/06/27 01:03:36;;;;;;;11.40;6.70;;;;;;;17.92;100.00;101550.47;5034392;28;20033;-73
2022/06/27 01:06:03;;;;;;;10.30;6.38;;;;;;;17.94;100.00;101547.81;5034219;28;20046;-74
2022/06/27 01:08:28;;;;;;;10.60;5.88;;;;;;;17.94;100.00;101547.81;5031683;28;20111;-75
2022/06/27 01:10:54;;;;;;;11.48;6.63;;;;;;;17.93;100.00;101546.03;5032774;28;20489;-75
2022/06/27 01:13:20;;;;;;;13.57;5.47;;;;;;;17.94;100.00;101543.34;5033528;28;20120;-74
2022/06/27 01:15:46;;;;;;;8.40;5.63;;;;;;;17.96;100.00;101540.69;5034273;28;20030;-75
2022/06/27 01:18:13;;;;;;;13.00;6.00;;;;;;;17.96;100.00;101533.59;5033062;28;20040;-74
2022/06/27 01:20:42;;;;;;;8.32;5.78;;;;;;;18.00;100.00;101531.78;5034025;28;20074;-74
2022/06/27 01:23:07;;;;;;;8.68;6.40;;;;;;;17.97;100.00;101537.13;5033816;28;20423;-74
2022/06/27 01:25:35;;;;;;;10.15;7.10;;;;;;;17.91;100.00;101527.34;5033822;28;20025;-74
2022/06/27 01:28:02;;;;;;;12.38;6.57;;;;;;;17.85;100.00;101528.25;5033041;28;20021;-73
2022/06/27 01:30:27;;;;;;;9.65;6.07;;;;;;;17.89;100.00;101530.91;5034151;28;20037;-74
2022/06/27 01:32:53;;;;;;;8.98;6.43;;;;;;;17.91;100.00;101532.69;5032171;28;20025;-74
2022/06/27 01:35:18;;;;;;;12.05;6.25;;;;;;;17.95;100.00;101541.59;5034820;28;20144;-75
2022/06/27 01:37:44;;;;;;;13.32;6.20;;;;;;;17.96;100.00;101540.69;5031128;28;20469;-73
2022/06/27 01:40:09;;;;;;;8.45;6.38;;;;;;;17.91;100.00;101543.34;5033262;28;20108;-73
2022/06/27 01:42:35;;;;;;;10.73;6.85;;;;;;;17.95;100.00;101537.13;5033720;28;20474;-74
2022/06/27 01:45:01;;;;;;;12.10;6.20;;;;;;;17.94;100.00;101537.16;5033786;28;20477;-74
2022/06/27 01:47:27;;;;;;;13.70;6.63;;;;;;;17.93;100.00;101532.72;5033321;28;20029;-73
2022/06/27 01:49:53;;;;;;;13.18;6.88;;;;;;;17.92;100.00;101533.59;5032420;28;20112;-75
2022/06/27 01:52:19;;;;;;;16.52;6.80;;;;;;;17.93;100.00;101524.72;5033062;28;20112;-74
2022/06/27 01:54:44;;;;;;;8.18;5.93;;;;;;;17.92;100.00;101525.59;5033251;28;20036;-74
2022/06/27 01:57:10;;;;;;;7.90;6.10;;;;;;;17.97;100.00;101526.47;5033461;28;20036;-74
2022/06/27 01:59:36;;;;;;;8.23;6.57;;;;;;;17.98;100.00;101528.25;5033966;28;20017;-73
2022/06/27 02:02:06;;;;;;;8.30;6.25;;;;;;;17.99;100.00;101524.72;5032389;28;20040;-74
2022/06/27 02:04:33;;;;;;;11.52;6.93;;;;;;;17.95;100.00;101523.81;5032297;28;20025;-73
2022/06/27 02:06:59;;;;;;;8.27;6.28;;;;;;;17.98;100.00;101521.16;5031988;28;20021;-74
2022/06/27 02:09:25;;;;;;;8.25;6.68;;;;;;;17.96;100.00;101514.03;5030664;28;20468;-74
2022/06/27 02:11:51;;;;;;;11.15;6.85;;;;;;;17.93;100.00;101503.41;5033552;28;20105;-74
2022/06/27 02:14:18;;;;;;;9.75;6.05;;;;;;;17.91;100.00;101498.06;5031671;28;20064;-74
2022/06/27 02:16:44;;;;;;;9.63;6.40;;;;;;;17.89;100.00;101493.63;5032124;28;20462;-74
2022/06/27 02:19:15;;;;;;;12.05;7.20;;;;;;;17.87;100.00;101481.22;5032921;28;20109;-73
2022/06/27 02:21:41;;;;;;;8.00;6.15;;;;;;;17.84;100.00;101486.56;5032335;28;20128;-75
2022/06/27 02:24:07;;;;;;;14.13;6.53;;;;;;;17.81;100.00;101483.91;5033104;28;20048;-74
2022/06/27 02:26:33;;;;;;;11.52;7.03;;;;;;;17.78;100.00;101491.88;5031639;28;20461;-74
2022/06/27 02:28:59;;;;;;;9.77;6.53;;;;;;;17.78;100.00;101497.19;5032657;28;20432;-75
2022/06/27 02:31:25;;;;;;;11.55;6.78;;;;;;;17.77;100.00;101506.09;5032178;28;20040;-74
2022/06/27 02:33:52;;;;;;;9.27;6.68;;;;;;;17.78;100.00;101499.88;5032642;28;20033;-74
2022/06/27 02:36:27;;;;;;;11.15;6.45;;;;;;;17.78;100.00;101502.53;5032761;28;20029;-74
2022/06/27 02:38:54;;;;;;;11.40;6.80;;;;;;;17.81;100.00;101497.22;5031842;28;20021;-74
2022/06/27 02:41:21;;;;;;;10.32;6.70;;;;;;;17.78;100.00;101489.22;5033390;28;20059;-74
2022/06/27 02:43:48;;;;;;;14.45;7.32;;;;;;;17.77;100.00;101489.22;5033472;28;20026;-75
2022/06/27 02:46:14;;;;;;;11.48;6.85;;;;;;;17.76;100.00;101491.00;5031071;28;20037;-74
2022/06/27 02:48:40;;;;;;;11.20;6.78;;;;;;;17.69;100.00;101486.59;5032292;28;20032;-74
2022/06/27 02:51:10;;;;;;;11.90;6.18;;;;;;;17.66;100.00;101495.47;5031007;28;20025;-74
2022/06/27 02:53:46;;;;;;;10.85;6.10;;;;;;;17.60;100.00;101490.16;5029762;28;20523;-73
2022/06/27 02:56:17;;;;;;;10.48;6.63;;;;;;;17.51;100.00;101484.84;5031213;28;20026;-73
2022/06/27 02:58:52;;;;;;;9.27;5.90;;;;;;;17.43;100.00;101479.56;5032281;28;20025;-75
2022/06/27 03:01:19;;;;;;;13.10;6.63;;;;;;;17.38;100.00;101480.44;5032718;28;20034;-74
2022/06/27 03:03:48;;;;;;;11.43;7.15;;;;;;;17.35;100.00;101478.69;5032494;28;20381;-75
2022/06/27 03:06:13;;;;;;;10.98;7.03;;;;;;;17.35;100.00;101471.59;5032614;28;20033;-75
2022/06/27 03:08:48;;;;;;;14.05;7.60;;;;;;;17.41;100.00;101473.34;5030455;28;20022;-74
2022/06/27 03:11:21;;;;;;;10.73;6.85;;;;;;;17.35;100.00;101463.59;5032642;28;20439;-74
2022/06/27 03:13:47;;;;;;;10.23;6.82;;;;;;;17.28;100.00;101460.94;5032602;28;20029;-75
2022/06/27 03:16:14;;;;;;;10.95;6.93;;;;;;;17.23;100.00;101463.63;5030814;28;20108;-74
2022/06/27 03:18:40;;;;;;;11.55;7.60;;;;;;;17.19;100.00;101457.41;5030925;28;20021;-74
2022/06/27 03:21:05;;;;;;;11.10;7.25;;;;;;;17.14;100.00;101453.88;5031634;28;20017;-73
2022/06/27 03:23:31;;;;;;;10.77;6.85;;;;;;;17.12;100.00;101455.66;5031386;28;20017;-73
2022/06/27 03:25:56;;;;;;;12.75;7.25;;;;;;;17.12;100.00;101457.41;5031153;28;20365;-74
2022/06/27 03:28:22;;;;;;;10.23;7.15;;;;;;;17.05;100.00;101456.56;5031693;28;20032;-74
2022/06/27 03:30:48;;;;;;;9.88;7.13;;;;;;;16.98;100.00;101453.00;5031950;28;20036;-75
2022/06/27 03:33:14;;;;;;;11.75;7.40;;;;;;;16.88;100.00;101467.16;5032271;28;20033;-73
2022/06/27 03:35:41;;;;;;;11.32;7.70;;;;;;;16.82;100.00;101476.00;5032638;28;20083;-73
2022/06/27 03:38:06;;;;;;;11.60;7.55;;;;;;;16.80;100.00;101468.91;5032199;28;20026;-73
2022/06/27 03:40:32;;;;;;;14.80;8.20;;;;;;;16.84;100.00;101468.91;5031241;28;20062;-74
2022/06/27 03:42:57;;;;;;;16.33;8.02;;;;;;;16.80;100.00;101467.13;5030495;28;20648;-74
2022/06/27 03:45:23;;;;;;;11.45;8.35;;;;;;;16.81;100.00;101476.00;5031548;28;20059;-73
2022/06/27 03:47:54;;;;;;;15.00;8.68;;;;;;;16.79;100.00;101468.03;5031981;28;20057;-75
2022/06/27 03:50:20;;;;;;;12.30;8.68;;;;;;;16.75;100.00;101463.56;5035629;28;20545;-74
2022/06/27 03:52:46;;;;;;;9.52;7.55;;;;;;;16.71;100.00;101453.81;5033768;28;20121;-74
2022/06/27 03:55:12;;;;;;;13.65;7.82;;;;;;;16.66;100.00;101450.31;5034973;28;20109;-74
2022/06/27 03:57:39;;;;;;;14.02;8.50;;;;;;;16.61;100.00;101452.94;5034840;28;20040;-75
2022/06/27 04:00:08;;;;;;;14.73;8.55;;;;;;;16.59;100.00;101456.47;5036116;28;20021;-73
2022/06/27 04:02:34;;;;;;;11.30;8.25;;;;;;;16.57;100.00;101456.47;5033528;28;20037;-73
2022/06/27 04:05:00;;;;;;;13.63;8.50;;;;;;;16.58;100.00;101452.06;5035319;28;20521;-74
2022/06/27 04:07:25;;;;;;;14.57;9.25;;;;;;;16.59;100.00;101445.84;5035828;28;20113;-74
2022/06/27 04:09:51;;;;;;;12.25;8.60;;;;;;;16.66;100.00;101452.97;5035437;28;20021;-74
2022/06/27 04:12:16;;;;;;;10.90;8.20;;;;;;;16.67;100.00;101458.28;5035918;28;20032;-76
2022/06/27 04:14:41;;;;;;;15.82;8.40;;;;;;;16.74;100.00;101463.59;5034905;28;20077;-73
2022/06/27 04:17:07;;;;;;;17.17;9.40;;;;;;;16.77;100.00;101453.84;5032113;28;20477;-74
2022/06/27 04:19:32;;;;;;;10.45;8.48;;;;;;;16.80;100.00;101437.91;5035749;28;20433;-73
2022/06/27 04:21:57;;;;;;;11.40;8.02;;;;;;;16.83;100.00;101443.22;5035075;28;20075;-74
2022/06/27 04:24:23;;;;;;;14.23;8.38;;;;;;;16.84;100.00;101444.97;5031955;28;20026;-74
2022/06/27 04:26:48;;;;;;;9.90;7.80;;;;;;;16.82;100.00;101454.75;5035643;28;20033;-73
2022/06/27 04:29:13;;;;;;;13.40;8.95;;;;;;;16.82;100.00;101462.72;5034587;28;20074;-75
2022/06/27 04:31:39;;;;;;;12.27;8.60;;;;;;;16.83;100.00;101456.53;5032956;28;20029;-72
2022/06/27 04:34:04;;;;;;;15.02;8.50;;;;;;;16.86;100.00;101447.63;5035748;28;20487;-74
2022/06/27 04:36:30;;;;;;;12.95;8.15;;;;;;;16.86;100.00;101426.38;5034338;28;20540;-74
2022/06/27 04:38:57;;;;;;;13.57;8.52;;;;;;;16.88;100.00;101411.31;5034727;28;20036;-74
2022/06/27 04:41:23;;;;;;;14.35;8.15;;;;;;;16.93;100.00;101406.94;5034650;28;20021;-73
2022/06/27 04:43:49;;;;;;;12.30;8.45;;;;;;;16.98;100.00;101414.88;5035614;28;20104;-74
2022/06/27 04:46:15;;;;;;;13.20;8.68;;;;;;;17.06;100.00;101405.13;5032944;28;20149;-73
2022/06/27 04:48:40;;;;;;;13.48;8.40;;;;;;;17.09;100.00;101399.84;5034065;28;20142;-72
2022/06/27 04:51:06;;;;;;;11.05;7.75;;;;;;;17.10;100.00;101393.59;5034054;28;20558;-73
2022/06/27 04:53:32;;;;;;;14.85;8.63;;;;;;;17.13;100.00;101387.41;5034370;28;20481;-75
2022/06/27 04:55:57;;;;;;;12.10;8.07;;;;;;;17.12;100.00;101391.84;5034075;28;20048;-74
2022/06/27 04:58:23;;;;;;;13.60;8.70;;;;;;;17.19;100.00;101409.53;5034904;28;20021;-74
2022/06/27 05:00:49;;;;;;;11.13;8.15;;;;;;;17.22;100.00;101416.63;5034077;28;20029;-74
2022/06/27 05:03:14;;;;;;;12.73;7.97;;;;;;;17.22;100.00;101413.09;5032912;28;20886;-74
2022/06/27 05:05:40;;;;;;;10.95;7.90;;;;;;;17.17;100.00;101415.75;5034557;28;20021;-74
2022/06/27 05:08:05;;;;;;;16.27;8.60;;;;;;;17.11;100.00;101406.00;5035077;28;20053;-75
2022/06/27 05:10:30;;;;;;;10.15;7.90;;;;;;;17.05;100.00;101400.72;5033705;28;20112;-74
2022/06/27 05:12:56;;;;;;;11.10;7.95;;;;;;;17.00;100.00;101405.16;5033849;28;20461;-75
2022/06/27 05:15:21;;;;;;;11.18;8.98;;;;;;;16.98;100.00;101418.44;5033124;28;20815;-75
2022/06/27 05:17:47;;;;;;;14.07;8.43;;;;;;;16.93;100.00;101428.19;5034046;28;20507;-75
2022/06/27 05:20:12;;;;;;;17.67;8.60;;;;;;;16.92;100.00;101438.84;5033935;28;20052;-74
2022/06/27 05:22:38;;;;;;;13.30;8.18;;;;;;;16.97;100.00;101439.69;5031251;28;20052;-73
2022/06/27 05:25:04;;;;;;;17.40;8.98;;;;;;;17.04;100.00;101436.16;5030844;28;20032;-73
2022/06/27 05:27:30;;;;;;;13.10;8.57;;;;;;;17.12;100.00;101426.41;5032496;28;20029;-73
2022/06/27 05:29:55;;;;;;;12.43;8.25;;;;;;;17.18;100.00;101439.69;5032653;28;20029;-75
2022/06/27 05:32:20;;;;;;;16.17;9.35;;;;;;;17.22;100.00;101429.94;5032438;28;20032;-74
2022/06/27 05:34:46;;;;;;;9.68;7.78;;;;;;;17.32;100.00;101425.47;5032327;28;20064;-73
2022/06/27 05:37:12;;;;;;;17.45;7.68;;;;;;;17.34;100.00;101440.53;5032479;28;20116;-73
2022/06/27 05:39:40;;;;;;;14.35;8.52;;;;;;;17.37;100.00;101450.31;5034498;28;20021;-75
2022/06/27 05:42:05;;;;;;;13.25;9.20;;;;;;;17.39;100.00;101459.19;5033013;28;20104;-73
2022/06/27 05:44:31;;;;;;;15.20;9.35;;;;;;;17.43;100.00;101457.38;5033305;28;20244;-73
2022/06/27 05:46:57;;;;;;;15.88;9.27;;;;;;;17.46;100.00;101450.28;5030102;28;20104;-73
2022/06/27 05:49:24;;;;;;;13.13;8.93;;;;;;;17.52;100.00;101465.34;5026449;28;20426;-73
2022/06/27 05:51:51;;;;;;;14.77;9.90;;;;;;;17.55;100.00;101453.81;5025713;28;20108;-74
2022/06/27 05:54:17;;;;;;;14.68;9.40;;;;;;;17.62;100.00;101471.53;5027710;28;20037;-75
2022/06/27 05:56:42;;;;;;;17.27;9.32;;;;;;;17.69;100.00;101473.31;5026488;28;20465;-77
2022/06/27 05:59:07;;;;;;;16.20;9.77;;;;;;;17.73;100.00;101475.06;5032265;28;20057;-74
2022/06/27 06:01:36;;;;;;;15.57;9.88;;;;;;;17.77;100.00;101487.47;5030468;28;20032;-76
2022/06/27 06:04:02;;;;;;;14.38;9.55;;;;;;;17.82;100.00;101496.34;5032298;28;20029;-77
2022/06/27 06:06:28;;;;;;;19.42;10.13;;;;;;;17.89;100.00;101501.63;5033764;28;20025;-75
2022/06/27 06:08:54;;;;;;;18.70;9.85;;;;;;;17.95;100.00;101506.97;5030384;28;20531;-75
2022/06/27 06:11:19;;;;;;;14.57;8.95;;;;;;;18.00;100.00;101505.16;5033940;28;20026;-77
2022/06/27 06:13:45;;;;;;;21.95;9.90;;;;;;;18.06;100.00;101501.59;5032772;28;20382;-76
2022/06/27 06:16:11;;;;;;;16.15;9.25;;;;;;;18.08;100.00;101503.38;5034289;28;20030;-75
2022/06/27 06:18:37;;;;;;;14.23;9.70;;;;;;;18.11;100.00;101498.03;5034168;28;20060;-76
2022/06/27 06:21:03;;;;;;;14.07;9.75;;;;;;;18.15;100.00;101498.88;5033720;28;20112;-76
2022/06/27 06:23:31;;;;;;;18.30;9.63;;;;;;;18.19;100.00;101501.53;5033389;28;20112;-76
2022/06/27 06:25:57;;;;;;;16.10;9.95;;;;;;;18.23;100.00;101494.44;5033531;28;20475;-77
2022/06/27 06:28:23;;;;;;;14.60;9.32;;;;;;;18.26;100.00;101507.72;5033514;28;20025;-76
2022/06/27 06:30:48;;;;;;;17.88;9.90;;;;;;;18.30;100.00;101519.25;5033926;28;20030;-76
2022/06/27 06:33:14;;;;;;;21.00;9.88;;;;;;;18.35;100.00;101520.09;5033645;28;20044;-72
2022/06/27 06:35:40;;;;;;;16.27;9.07;;;;;;;18.37;100.00;101526.34;5032341;28;20034;-75
2022/06/27 06:38:06;;;;;;;15.10;9.63;;;;;;;18.43;100.00;101536.06;5033429;28;20075;-74
2022/06/27 06:40:31;;;;;;;14.85;9.18;;;;;;;18.45;100.00;101539.59;5033064;28;20057;-75
2022/06/27 06:42:59;;;;;;;13.63;9.20;;;;;;;18.53;100.00;101549.34;5030535;28;20067;-74
2022/06/27 06:45:24;;;;;;;17.75;9.68;;;;;;;18.59;100.00;101555.53;5033729;28;20025;-74
2022/06/27 06:47:50;;;;;;;12.48;8.45;;;;;;;18.63;100.00;101549.28;5033059;28;20037;-74
2022/06/27 06:50:18;;;;;;;13.00;8.77;;;;;;;18.60;100.00;101547.53;5033463;28;20025;-73
2022/06/27 06:52:51;;;;;;;16.23;9.45;;;;;;;18.63;100.00;101535.97;5029781;28;20477;-73
2022/06/27 06:55:24;;;;;;;21.40;10.43;;;;;;;18.63;100.00;101512.84;5033432;28;20041;-74
2022/06/27 06:57:49;;;;;;;15.35;9.30;;;;;;;18.63;100.00;101501.31;5033404;28;20025;-74
2022/06/27 07:00:16;;;;;;;13.30;9.02;;;;;;;18.61;100.00;101484.44;5032676;28;20091;-75
2022/06/27 07:02:43;;;;;;;13.98;8.40;;;;;;;18.62;100.00;101472.88;5031826;28;20026;-74
2022/06/27 07:05:11;;;;;;;14.43;9.15;;;;;;;18.61;100.00;101479.09;5031110;28;20045;-74
2022/06/27 07:07:41;;;;;;;14.25;8.77;;;;;;;18.62;100.00;101479.09;5032851;28;20060;-74
2022/06/27 07:10:08;;;;;;;11.48;8.85;;;;;;;18.64;100.00;101477.31;5033157;28;20041;-74
2022/06/27 07:12:33;;;;;;;15.70;8.90;;;;;;;18.64;100.00;101466.66;5025882;28;20105;-72
2022/06/27 07:15:00;;;;;;;12.80;8.13;;;;;;;18.64;100.00;101460.44;5032926;28;20064;-73
2022/06/27 07:17:27;;;;;;;15.52;8.82;;;;;;;18.65;100.00;101462.19;5030015;28;20377;-72
2022/06/27 07:19:53;;;;;;;11.45;8.40;;;;;;;18.65;100.00;101467.53;5032560;28;20395;-72
2022/06/27 07:22:19;;;;;;;13.65;8.77;;;;;;;18.67;100.00;101471.06;5031967;28;20029;-74
2022/06/27 07:24:48;;;;;;;13.60;7.97;;;;;;;18.67;100.00;101479.94;5031740;28;20029;-74
2022/06/27 07:27:16;;;;;;;18.02;7.70;;;;;;;18.72;100.00;101469.28;5032947;28;20025;-73
2022/06/27 07:29:42;;;;;;;10.27;6.95;;;;;;;18.83;100.00;101471.84;5031088;28;20564;-73
2022/06/27 07:32:08;;;;;;;12.73;7.40;;;;;;;18.83;100.00;101486.06;5031809;28;20100;-73
2022/06/27 07:34:34;;;;;;;9.77;6.47;;;;;;;18.85;100.00;101486.91;5032221;28;20044;-74
2022/06/27 07:37:00;;;;;;;12.65;7.15;;;;;;;18.84;100.00;101477.16;5032507;28;20017;-73
2022/06/27 07:39:26;;;;;;;18.55;7.72;;;;;;;18.83;100.00;101482.53;5031694;28;20067;-74
2022/06/27 07:41:52;;;;;;;13.05;7.03;;;;;;;18.84;100.00;101487.84;5032243;28;20032;-75
2022/06/27 07:44:17;;;;;;;12.60;7.18;;;;;;;18.87;100.00;101505.59;5031486;28;20026;-75
2022/06/27 07:46:43;;;;;;;13.55;7.07;;;;;;;18.90;100.00;101515.41;5032870;28;20163;-75
2022/06/27 07:49:08;;;;;;;13.90;7.13;;;;;;;18.87;100.00;101517.13;5031749;28;20025;-75
2022/06/27 07:51:35;;;;;;;14.05;7.85;;;;;;;18.92;100.00;101516.25;5032691;28;20036;-76
2022/06/27 07:54:01;;;;;;;11.70;6.93;;;;;;;18.95;100.00;101514.47;5032016;28;20052;-75
2022/06/27 07:56:27;;;;;;;14.68;7.07;;;;;;;19.00;100.00;101503.75;5031162;28;20025;-75
2022/06/27 07:58:53;;;;;;;9.77;6.20;;;;;;;19.04;100.00;101510.81;5031091;28;20049;-74
2022/06/27 08:01:19;;;;;;;13.90;7.68;;;;;;;19.04;100.00;101510.81;5027109;28;20059;-74
2022/06/27 08:03:48;;;;;;;11.93;7.03;;;;;;;19.03;100.00;101517.03;5032858;28;20049;-74
2022/06/27 08:06:25;;;;;;;14.38;7.10;;;;;;;19.06;100.00;101524.13;5032208;28;20025;-75
2022/06/27 08:08:55;;;;;;;13.50;7.22;;;;;;;19.17;100.00;101528.50;5031552;28;20068;-74
2022/06/27 08:11:26;;;;;;;16.30;8.05;;;;;;;19.18;100.00;101522.28;5029643;28;20057;-75
2022/06/27 08:13:55;;;;;;;10.80;6.07;;;;;;;19.24;100.00;101523.13;5031706;28;20025;-73
2022/06/27 08:16:24;;;;;;;11.05;6.60;;;;;;;19.29;100.00;101513.28;5032329;28;20048;-73
2022/06/27 08:18:51;;;;;;;9.93;6.00;;;;;;;19.30;100.00;101505.28;5031856;28;20033;-74
2022/06/27 08:21:19;;;;;;;16.63;7.43;;;;;;;19.33;100.00;101504.34;5032778;28;20029;-75
2022/06/27 08:23:46;;;;;;;10.93;5.75;;;;;;;19.34;100.00;101507.03;5032019;28;20477;-73
2022/06/27 08:26:16;;;;;;;15.18;5.50;;;;;;;19.37;100.00;101511.41;5034488;28;20574;-73
2022/06/27 08:28:44;;;;;;;17.80;5.70;;;;;;;19.42;100.00;101508.72;5040547;28;20025;-73
2022/06/27 08:31:12;;;;;;;9.75;5.35;;;;;;;19.53;100.00;101496.16;5034452;28;20481;-74
2022/06/27 08:33:39;;;;;;;12.95;5.85;;;;;;;19.68;100.00;101503.09;5042049;28;20195;-75
2022/06/27 08:36:06;;;;;;;12.73;5.65;;;;;;;19.81;100.00;101512.78;5042791;28;20083;-74
2022/06/27 08:38:40;;;;;;;11.00;7.47;;;;;;;19.92;100.00;101520.69;5036109;28;20033;-72
2022/06/27 08:41:07;;;;;;;11.23;7.47;;;;;;;19.95;100.00;101530.44;5037748;28;20096;-74
2022/06/27 08:43:34;;;;;;;13.48;7.43;;;;;;;19.97;100.00;101544.69;5042781;28;20392;-74
2022/06/27 08:45:59;;;;;;;13.88;5.95;;;;;;;20.01;100.00;101549.09;5036569;28;20045;-74
2022/06/27 08:48:28;;;;;;;14.43;5.97;;;;;;;19.98;100.00;101544.66;5036066;28;20026;-73
2022/06/27 08:50:55;;;;;;;7.72;5.13;;;;;;;20.06;100.00;101544.56;5036583;28;20527;-72
2022/06/27 08:53:22;;;;;;;8.80;4.45;;;;;;;20.12;100.00;101548.97;5037190;28;20461;-74
2022/06/27 08:55:47;;;;;;;9.00;5.00;;;;;;;20.13;100.00;101554.28;5040917;28;20024;-75
2022/06/27 08:58:14;;;;;;;14.38;4.90;;;;;;;20.18;100.00;101555.13;5036910;28;20036;-74
2022/06/27 09:00:45;;;;;;;9.90;5.85;;;;;;;20.20;100.00;101558.66;5051086;28;20017;-74
2022/06/27 09:03:18;;;;;;;10.40;6.45;;;;;;;20.17;100.00;101553.34;5046566;28;20025;-74
2022/06/27 09:05:54;;;;;;;9.32;5.90;;;;;;;20.13;100.00;101562.31;5035343;28;20064;-73
2022/06/27 09:08:20;;;;;;;9.93;5.40;;;;;;;20.12;100.00;101565.88;5042552;28;20033;-74
2022/06/27 09:10:46;;;;;;;11.60;5.63;;;;;;;20.11;100.00;101564.09;5048091;28;20108;-76
2022/06/27 09:13:16;;;;;;;11.65;5.97;;;;;;;20.13;100.00;101561.41;5041068;28;20026;-74
2022/06/27 09:15:57;;;;;;;11.18;5.63;;;;;;;20.07;100.00;101562.38;5044180;28;20155;-73
2022/06/27 09:18:31;;;;;;;15.43;5.70;;;;;;;20.05;100.00;101566.84;5038436;28;20410;-73
2022/06/27 09:21:05;;;;;;;11.55;5.07;;;;;;;20.05;100.00;101550.81;5037797;28;20028;-74
2022/06/27 09:23:42;;;;;;;10.57;5.03;;;;;;;20.07;100.00;101557.03;5037236;28;20073;-75
2022/06/27 09:26:21;;;;;;;10.10;4.45;;;;;;;20.09;100.00;101544.53;5033901;28;20104;-75
2022/06/27 09:29:09;;;;;;;12.52;4.65;;;;;;;20.10;100.00;101538.28;5042895;28;20017;-74
2022/06/27 09:31:40;;;;;;;12.45;4.85;;;;;;;20.09;100.00;101544.53;5050749;28;20444;-74
2022/06/27 09:34:14;;;;;;;9.85;4.45;;;;;;;20.17;100.00;101542.66;5044373;28;20056;-74
2022/06/27 09:37:01;;;;;;;10.10;4.93;;;;;;;20.31;100.00;101542.47;5043088;28;20432;-74
2022/06/27 09:39:32;;;;;;;12.95;4.97;;;;;;;20.43;100.00;101556.59;5043043;28;20025;-74
2022/06/27 09:42:03;;;;;;;11.23;4.72;;;;;;;20.50;100.00;101560.97;5044004;28;20048;-74
2022/06/27 09:44:35;;;;;;;16.42;4.50;;;;;;;20.57;100.00;101561.78;5035899;28;20033;-74
2022/06/27 09:47:13;;;;;;;10.77;5.22;;;;;;;20.53;100.00;101566.25;5033657;28;20040;-74
2022/06/27 09:49:41;;;;;;;10.15;4.07;;;;;;;20.53;100.00;101567.13;5041881;28;20025;-73
2022/06/27 09:52:19;;;;;;;9.40;3.97;;;;;;;20.54;100.00;101555.53;5037731;28;20079;-74
2022/06/27 09:54:48;;;;;;;7.80;3.38;;;;;;;20.57;100.00;101561.78;5037737;28;20053;-74
2022/06/27 09:57:15;;;;;;;10.30;3.13;;;;;;;20.58;100.00;101558.16;5034247;28;20038;-74
2022/06/27 09:59:42;;;;;;;9.52;4.00;;;;;;;20.61;100.00;101552.81;5034421;28;20064;-77
2022/06/27 10:02:08;;;;;;;6.85;3.28;;;;;;;20.67;100.00;101552.69;5041729;28;20400;-74
2022/06/27 10:04:35;;;;;;;7.43;3.10;;;;;;;20.75;100.00;101556.16;5034524;28;20117;-76
2022/06/27 10:07:03;;;;;;;11.27;3.38;;;;;;;20.79;100.00;101547.19;5033766;28;20397;-74
2022/06/27 10:09:31;;;;;;;12.82;3.58;;;;;;;20.86;100.00;101548.91;5034498;28;20034;-73
2022/06/27 10:12:21;;;;;;;10.32;3.42;;;;;;;20.89;100.00;101548.84;5033363;28;20021;-73
2022/06/27 10:14:46;;;;;;;12.85;3.88;;;;;;;20.79;100.00;101543.66;5033092;28;20017;-73
2022/06/27 10:17:15;;;;;;;16.30;4.80;;;;;;;20.81;100.00;101545.41;5032500;28;20021;-73
2022/06/27 10:20:00;;;;;;;13.63;4.50;;;;;;;20.81;100.00;101550.75;5033354;28;20443;-73
2022/06/27 10:22:26;;;;;;;10.35;4.40;;;;;;;20.72;100.00;101557.09;5033831;28;20029;-73
2022/06/27 10:24:51;;;;;;;9.43;4.40;;;;;;;20.69;100.00;101558.97;5034037;28;20035;-74
2022/06/27 10:27:31;;;;;;;11.52;4.13;;;;;;;20.67;100.00;101553.59;5022774;28;20555;-74
2022/06/27 10:29:59;;;;;;;9.73;4.80;;;;;;;20.64;100.00;101558.09;5030014;28;20017;-74
2022/06/27 10:32:46;;;;;;;12.80;5.60;;;;;;;20.60;100.00;101557.25;5031675;28;20013;-74
2022/06/27 10:35:13;;;;;;;11.73;5.30;;;;;;;20.54;100.00;101554.66;5030345;28;20121;-74
2022/06/27 10:37:40;;;;;;;9.80;5.15;;;;;;;20.50;100.00;101545.78;5032396;28;20029;-73
2022/06/27 10:40:21;;;;;;;12.40;5.28;;;;;;;20.48;100.00;101542.28;5030772;28;20025;-74
2022/06/27 10:42:56;;;;;;;10.40;4.88;;;;;;;20.44;100.00;101551.22;5030235;28;20025;-74
2022/06/27 10:45:21;;;;;;;11.38;5.70;;;;;;;20.42;100.00;101553.03;5033744;28;20033;-73
2022/06/27 10:47:51;;;;;;;9.82;5.15;;;;;;;20.42;100.00;101547.69;5033716;28;20034;-73
2022/06/27 10:50:19;;;;;;;9.55;4.68;;;;;;;20.44;100.00;101551.22;5032370;28;20033;-73
2022/06/27 10:52:45;;;;;;;11.20;4.55;;;;;;;20.44;100.00;101561.91;5033305;28;20049;-73
2022/06/27 10:55:21;;;;;;;6.20;3.90;;;;;;;20.50;100.00;101558.28;5033492;28;20040;-74
2022/06/27 10:57:48;;;;;;;8.07;4.32;;;;;;;20.59;100.00;101555.50;5032598;28;20039;-73
2022/06/27 11:00:39;;;;;;;11.05;3.63;;;;;;;20.66;100.00;101550.91;5031474;28;20021;-74
2022/06/27 11:03:06;;;;;;;7.70;2.90;;;;;;;20.69;100.00;101550.94;5031291;28;20025;-74
2022/06/27 11:05:51;;;;;;;7.10;2.90;;;;;;;20.76;100.00;101546.38;5033395;28;20026;-74
2022/06/27 11:08:16;;;;;;;4.85;2.30;;;;;;;20.86;100.00;101559.59;5032373;28;20386;-74
2022/06/27 11:10:46;;;;;;;9.15;3.47;;;;;;;20.92;100.00;101552.34;5033270;28;20026;-74
2022/06/27 11:13:35;;;;;;;9.23;3.85;;;;;;;20.99;100.00;101548.72;5032671;28;20034;-73